createdAt,value
2023-09-28T00:00:33.355Z,17.15
2023-09-28T00:02:59.966Z,17.17
2023-09-28T00:05:26.508Z,17.23
2023-09-28T00:07:53.113Z,17.28
2023-09-28T00:10:19.655Z,17.34
2023-09-28T00:12:50.275Z,17.42
2023-09-28T00:15:17.269Z,17.40
2023-09-28T00:17:43.846Z,17.38
2023-09-28T00:20:17.743Z,17.30
2023-09-28T00:22:50.470Z,17.04
2023-09-28T00:25:17.720Z,16.99
2023-09-28T00:27:45.613Z,17.06
2023-09-28T00:30:21.508Z,17.00
2023-09-28T00:32:48.559Z,16.94
2023-09-28T00:37:59.994Z,16.92
2023-09-28T00:40:29.654Z,16.88
2023-09-28T00:42:56.776Z,16.82
2023-09-28T00:45:24.021Z,16.75
2023-09-28T00:47:56.233Z,16.80
2023-09-28T00:50:24.381Z,16.80
2023-09-28T00:52:54.313Z,16.88
2023-09-28T00:55:21.381Z,16.95
2023-09-28T00:57:48.771Z,17.02
2023-09-28T01:00:29.981Z,16.99
2023-09-28T01:02:58.712Z,16.88
2023-09-28T01:08:28.089Z,16.25
2023-09-28T01:10:54.798Z,16.23
2023-09-28T01:13:25.404Z,16.25
2023-09-28T01:15:51.992Z,16.24
2023-09-28T01:18:19.716Z,16.18
2023-09-28T01:20:46.970Z,16.18
2023-09-28T01:23:13.736Z,15.99
2023-09-28T01:25:40.860Z,15.91
2023-09-28T01:28:07.905Z,16.03
2023-09-28T01:30:35.002Z,15.98
2023-09-28T01:33:01.991Z,16.02
2023-09-28T01:35:29.038Z,15.94
2023-09-28T01:38:16.014Z,15.92
2023-09-28T01:40:43.128Z,15.94
2023-09-28T01:43:09.728Z,16.05
2023-09-28T01:45:36.242Z,16.03
2023-09-28T01:48:05.299Z,16.03
2023-09-28T01:50:32.497Z,16.03
2023-09-28T01:52:59.555Z,15.98
2023-09-28T01:55:26.086Z,16.01
2023-09-28T01:57:52.749Z,15.98
2023-09-28T02:00:23.668Z,15.91
2023-09-28T02:02:51.860Z,15.91
2023-09-28T02:05:19.147Z,16.01
2023-09-28T02:07:46.401Z,16.24
2023-09-28T02:10:13.345Z,16.55
2023-09-28T02:12:40.759Z,16.73
2023-09-28T02:17:53.795Z,17.14
2023-09-28T02:20:23.912Z,17.19
2023-09-28T02:22:53.775Z,17.22
2023-09-28T02:25:22.105Z,17.40
2023-09-28T02:27:49.496Z,17.42
2023-09-28T02:30:18.944Z,17.49
2023-09-28T02:32:46.226Z,17.54
2023-09-28T02:35:15.403Z,17.54
2023-09-28T02:37:42.934Z,17.52
2023-09-28T02:40:10.819Z,17.46
2023-09-28T02:42:37.354Z,17.46
2023-09-28T02:45:12.857Z,17.46
2023-09-28T02:47:43.655Z,17.56
2023-09-28T02:50:14.638Z,17.58
2023-09-28T02:52:42.404Z,17.52
2023-09-28T02:57:53.445Z,17.54
2023-09-28T03:00:19.920Z,17.56
2023-09-28T03:02:46.658Z,17.56
2023-09-28T03:05:13.317Z,17.54
2023-09-28T03:07:42.560Z,17.58
2023-09-28T03:12:55.435Z,17.50
2023-09-28T03:15:22.022Z,17.51
2023-09-28T03:17:48.736Z,17.39
2023-09-28T03:23:03.495Z,17.36
2023-09-28T03:25:30.146Z,17.41
2023-09-28T03:27:56.634Z,17.47
2023-09-28T03:30:24.168Z,17.50
2023-09-28T03:32:51.748Z,17.56
2023-09-28T03:38:03.767Z,17.57
2023-09-28T03:40:34.781Z,17.51
2023-09-28T03:45:48.452Z,17.56
2023-09-28T03:48:15.015Z,17.54
2023-09-28T03:50:41.482Z,17.57
2023-09-28T03:53:07.948Z,17.52
2023-09-28T03:55:34.565Z,17.56
2023-09-28T03:58:01.938Z,17.62
2023-09-28T04:00:28.797Z,17.55
2023-09-28T04:02:56.294Z,17.52
2023-09-28T04:08:08.690Z,17.57
2023-09-28T04:10:35.175Z,17.56
2023-09-28T04:15:49.791Z,17.62
2023-09-28T04:18:16.428Z,17.61
2023-09-28T04:20:42.901Z,17.63
2023-09-28T04:23:09.909Z,17.53
2023-09-28T04:25:37.000Z,17.45
2023-09-28T04:28:04.515Z,17.42
2023-09-28T04:30:31.051Z,17.43
2023-09-28T04:32:58.318Z,17.35
2023-09-28T04:35:24.909Z,17.38
2023-09-28T04:37:51.465Z,17.30
2023-09-28T04:40:18.030Z,17.26
2023-09-28T04:42:44.578Z,17.38
2023-09-28T04:45:11.484Z,17.44
2023-09-28T04:47:38.211Z,17.48
2023-09-28T04:50:05.724Z,17.48
2023-09-28T04:52:32.335Z,17.37
2023-09-28T04:54:59.056Z,17.40
2023-09-28T04:57:26.724Z,17.51
2023-09-28T04:59:53.697Z,17.53
2023-09-28T05:02:20.393Z,17.62
2023-09-28T05:04:46.959Z,17.63
2023-09-28T05:07:13.917Z,17.66
2023-09-28T05:09:40.493Z,17.73
2023-09-28T05:12:07.740Z,17.82
2023-09-28T05:14:34.410Z,17.75
2023-09-28T05:17:01.465Z,17.74
2023-09-28T05:19:28.241Z,17.76
2023-09-28T05:21:54.871Z,17.64
2023-09-28T05:24:21.474Z,17.23
2023-09-28T05:26:47.943Z,17.02
2023-09-28T05:29:14.545Z,16.92
2023-09-28T05:31:41.821Z,16.41
2023-09-28T05:34:08.986Z,16.56
2023-09-28T05:36:36.289Z,16.19
2023-09-28T05:39:04.301Z,16.45
2023-09-28T05:41:31.492Z,16.47
2023-09-28T05:43:58.056Z,16.39
2023-09-28T05:46:24.613Z,16.65
2023-09-28T05:48:51.719Z,16.81
2023-09-28T05:51:18.766Z,16.86
2023-09-28T05:53:46.266Z,17.17
2023-09-28T05:56:15.316Z,17.38
2023-09-28T05:58:41.825Z,17.46
2023-09-28T06:01:08.820Z,17.84
2023-09-28T06:03:36.826Z,18.23
2023-09-28T06:06:32.779Z,18.74
2023-09-28T06:08:59.334Z,19.42
2023-09-28T06:11:26.353Z,19.56
2023-09-28T06:14:06.891Z,19.69
2023-09-28T06:16:38.231Z,20.15
2023-09-28T06:19:05.060Z,20.71
2023-09-28T06:21:31.601Z,21.18
2023-09-28T06:23:58.751Z,21.58
2023-09-28T06:26:35.326Z,22.14
2023-09-28T06:29:08.587Z,22.32
2023-09-28T06:31:35.323Z,22.70
2023-09-28T06:34:02.445Z,22.92
2023-09-28T06:38:58.759Z,23.92
2023-09-28T06:44:11.036Z,24.10
2023-09-28T06:46:38.161Z,24.07
2023-09-28T06:49:07.266Z,24.35
2023-09-28T06:51:33.889Z,24.74
2023-09-28T06:54:00.549Z,25.00
2023-09-28T06:56:28.133Z,24.84
2023-09-28T06:58:55.168Z,24.89
2023-09-28T07:01:22.332Z,24.51
2023-09-28T07:03:54.018Z,24.74
2023-09-28T07:06:22.622Z,24.83
2023-09-28T07:08:50.242Z,25.08
2023-09-28T07:11:16.774Z,25.49
2023-09-28T07:13:43.336Z,25.48
2023-09-28T07:16:09.914Z,25.65
2023-09-28T07:21:21.513Z,26.24
2023-09-28T07:23:48.155Z,26.27
2023-09-28T07:29:01.409Z,26.19
2023-09-28T07:31:28.710Z,26.16
2023-09-28T07:33:55.438Z,26.33
2023-09-28T07:36:22.034Z,26.64
2023-09-28T07:38:48.647Z,26.72
2023-09-28T07:41:15.270Z,26.72
2023-09-28T07:43:41.712Z,26.73
2023-09-28T07:46:08.788Z,26.76
2023-09-28T07:48:36.066Z,26.75
2023-09-28T07:51:02.615Z,26.85
2023-09-28T07:53:29.494Z,27.06
2023-09-28T07:55:56.181Z,27.07
2023-09-28T07:58:26.723Z,27.03
2023-09-28T08:00:54.831Z,27.09
2023-09-28T08:03:21.643Z,27.33
2023-09-28T08:05:48.278Z,27.46
2023-09-28T08:08:17.851Z,27.64
2023-09-28T08:10:44.987Z,27.70
2023-09-28T08:13:14.500Z,27.64
2023-09-28T08:15:42.196Z,27.46
2023-09-28T08:18:09.613Z,27.58
2023-09-28T08:20:36.690Z,27.74
2023-09-28T08:23:05.856Z,27.98
2023-09-28T08:25:32.783Z,28.42
2023-09-28T08:28:00.242Z,28.36
2023-09-28T08:30:26.744Z,28.25
2023-09-28T08:32:54.954Z,28.62
2023-09-28T08:38:06.047Z,28.62
2023-09-28T08:40:33.221Z,28.64
2023-09-28T08:43:00.769Z,29.09
2023-09-28T08:45:28.202Z,29.47
2023-09-28T08:47:55.940Z,29.90
2023-09-28T08:50:29.416Z,29.96
2023-09-28T08:52:56.938Z,30.43
2023-09-28T08:55:24.919Z,31.15
2023-09-28T08:57:51.995Z,31.46
2023-09-28T09:00:24.257Z,31.74
2023-09-28T09:02:52.991Z,32.02
2023-09-28T09:05:20.130Z,31.56
2023-09-28T09:07:46.846Z,31.63
2023-09-28T09:10:14.349Z,31.97
2023-09-28T09:12:40.875Z,32.20
2023-09-28T09:15:07.714Z,32.33
2023-09-28T09:17:34.726Z,32.07
2023-09-28T09:20:02.840Z,32.72
2023-09-28T09:22:35.014Z,33.11
2023-09-28T09:25:08.647Z,33.10
2023-09-28T09:27:35.193Z,32.39
2023-09-28T09:30:09.447Z,32.08
2023-09-28T09:32:36.586Z,31.20
2023-09-28T09:35:05.693Z,30.74
2023-09-28T09:40:17.463Z,30.28
2023-09-28T09:42:44.095Z,30.05
2023-09-28T09:45:12.924Z,29.82
2023-09-28T09:47:48.961Z,29.55
2023-09-28T09:50:16.005Z,29.25
2023-09-28T09:52:44.004Z,29.17
2023-09-28T09:55:10.722Z,29.09
2023-09-28T09:57:38.762Z,28.85
2023-09-28T10:00:08.337Z,29.09
2023-09-28T10:02:37.577Z,29.06
2023-09-28T10:05:05.627Z,29.02
2023-09-28T10:07:47.407Z,29.39
2023-09-28T10:10:15.353Z,29.15
2023-09-28T10:15:27.270Z,28.93
2023-09-28T10:17:54.833Z,28.91
2023-09-28T10:20:21.669Z,29.02
2023-09-28T10:22:48.982Z,29.23
2023-09-28T10:25:19.324Z,29.43
2023-09-28T10:27:48.640Z,29.27
2023-09-28T10:30:22.441Z,29.19
2023-09-28T10:32:53.193Z,29.37
2023-09-28T10:35:28.078Z,29.42
2023-09-28T10:38:17.127Z,29.37
2023-09-28T10:43:46.341Z,29.18
2023-09-28T10:48:58.822Z,29.11
2023-09-28T10:51:25.726Z,29.14
2023-09-28T10:53:52.291Z,29.05
2023-09-28T10:59:06.276Z,28.79
2023-09-28T11:01:33.059Z,28.77
2023-09-28T11:04:00.640Z,28.90
2023-09-28T11:06:28.595Z,29.05
2023-09-28T11:08:58.422Z,29.12
2023-09-28T11:11:26.182Z,29.19
2023-09-28T11:13:52.793Z,29.06
2023-09-28T11:16:19.490Z,28.80
2023-09-28T11:18:46.113Z,28.64
2023-09-28T11:21:13.337Z,28.42
2023-09-28T11:23:41.268Z,28.37
2023-09-28T11:26:14.450Z,28.29
2023-09-28T11:28:41.031Z,28.22
2023-09-28T11:31:11.357Z,28.23
2023-09-28T11:33:38.630Z,28.30
2023-09-28T11:36:05.946Z,28.57
2023-09-28T11:38:32.802Z,28.83
2023-09-28T11:40:59.629Z,28.95
2023-09-28T11:43:27.101Z,28.65
2023-09-28T11:45:53.629Z,28.56
2023-09-28T11:51:10.083Z,29.00
2023-09-28T11:53:39.564Z,29.23
2023-09-28T11:56:06.243Z,29.45
2023-09-28T11:58:35.479Z,29.56
2023-09-28T12:01:02.209Z,29.68
2023-09-28T12:03:29.107Z,29.69
2023-09-28T12:05:55.966Z,29.75
2023-09-28T12:08:22.939Z,29.20
2023-09-28T12:10:49.540Z,29.06
2023-09-28T12:13:16.072Z,28.96
2023-09-28T12:15:42.566Z,28.77
2023-09-28T12:18:09.850Z,28.61
2023-09-28T12:20:36.574Z,28.52
2023-09-28T12:23:04.472Z,28.38
2023-09-28T12:25:34.546Z,28.28
2023-09-28T12:28:01.295Z,28.11
2023-09-28T12:30:27.862Z,27.97
2023-09-28T12:32:55.081Z,27.85
2023-09-28T12:38:06.721Z,27.86
2023-09-28T12:40:34.051Z,27.79
2023-09-28T12:43:02.394Z,27.69
2023-09-28T12:45:31.963Z,27.82
2023-09-28T12:53:27.459Z,27.93
2023-09-28T12:55:55.099Z,28.02
2023-09-28T12:58:22.054Z,28.11
2023-09-28T13:00:55.796Z,28.26
2023-09-28T13:03:22.888Z,28.25
2023-09-28T13:05:49.646Z,28.12
2023-09-28T13:08:16.948Z,28.09
2023-09-28T13:10:44.167Z,28.14
2023-09-28T13:13:10.843Z,28.35
2023-09-28T13:15:37.457Z,28.45
2023-09-28T13:18:09.842Z,28.27
2023-09-28T13:20:43.568Z,28.30
2023-09-28T13:23:11.260Z,28.35
2023-09-28T13:25:39.443Z,28.33
2023-09-28T13:28:09.968Z,28.45
2023-09-28T13:30:40.180Z,28.64
2023-09-28T13:33:08.126Z,28.59
2023-09-28T13:35:34.922Z,28.52
2023-09-28T13:38:03.387Z,28.24
2023-09-28T13:40:34.186Z,28.19
2023-09-28T13:43:01.316Z,28.35
2023-09-28T13:45:28.226Z,28.37
2023-09-28T13:47:55.223Z,28.29
2023-09-28T13:50:22.601Z,28.18
2023-09-28T13:52:51.069Z,28.20
2023-09-28T13:55:18.005Z,28.16
2023-09-28T13:57:48.900Z,28.03
2023-09-28T14:00:23.704Z,27.98
2023-09-28T14:02:50.472Z,27.96
2023-09-28T14:05:17.960Z,27.98
2023-09-28T14:07:45.532Z,27.95
2023-09-28T14:10:12.248Z,27.92
2023-09-28T14:12:39.363Z,27.84
2023-09-28T14:15:07.862Z,27.75
2023-09-28T14:17:39.296Z,27.77
2023-09-28T14:20:07.961Z,27.64
2023-09-28T14:22:34.867Z,27.53
2023-09-28T14:25:02.000Z,27.43
2023-09-28T14:27:29.324Z,27.45
2023-09-28T14:29:55.848Z,27.51
2023-09-28T14:32:22.408Z,27.59
2023-09-28T14:34:48.974Z,27.48
2023-09-28T14:37:15.497Z,27.43
2023-09-28T14:39:41.968Z,27.41
2023-09-28T14:42:08.647Z,27.35
2023-09-28T14:44:35.950Z,27.31
2023-09-28T14:47:02.475Z,27.21
2023-09-28T14:49:28.901Z,27.17
2023-09-28T14:51:55.417Z,27.13
2023-09-28T14:54:22.352Z,27.09
2023-09-28T14:56:50.248Z,27.03
2023-09-28T14:59:16.937Z,26.93
2023-09-28T15:01:43.469Z,26.89
2023-09-28T15:04:10.179Z,26.87
2023-09-28T15:06:36.959Z,26.86
2023-09-28T15:09:04.023Z,26.85
2023-09-28T15:11:30.631Z,26.77
2023-09-28T15:13:57.485Z,26.67
2023-09-28T15:16:24.578Z,26.62
2023-09-28T15:18:51.130Z,26.53
2023-09-28T15:21:17.687Z,26.53
2023-09-28T15:23:44.222Z,26.41
2023-09-28T15:26:10.890Z,26.29
2023-09-28T15:28:38.382Z,26.26
2023-09-28T15:31:04.950Z,26.17
2023-09-28T15:33:31.554Z,26.13
2023-09-28T15:35:59.557Z,26.01
2023-09-28T15:38:26.428Z,25.92
2023-09-28T15:40:53.195Z,25.84
2023-09-28T15:43:19.749Z,25.88
2023-09-28T15:45:47.430Z,25.86
2023-09-28T15:48:14.013Z,25.77
2023-09-28T15:50:41.681Z,25.69
2023-09-28T15:53:08.916Z,25.64
2023-09-28T15:55:35.475Z,25.51
2023-09-28T15:58:02.451Z,25.47
2023-09-28T16:00:36.570Z,25.39
2023-09-28T16:03:04.949Z,25.41
2023-09-28T16:05:31.677Z,25.32
2023-09-28T16:08:00.211Z,25.25
2023-09-28T16:10:27.046Z,25.19
2023-09-28T16:12:54.237Z,25.02
2023-09-28T16:15:20.982Z,24.92
2023-09-28T16:17:47.701Z,24.96
2023-09-28T16:20:14.515Z,24.96
2023-09-28T16:22:41.187Z,24.94
2023-09-28T16:25:07.989Z,24.87
2023-09-28T16:27:34.587Z,24.76
2023-09-28T16:30:01.125Z,24.65
2023-09-28T16:32:27.708Z,24.63
2023-09-28T16:34:54.393Z,24.63
2023-09-28T16:37:20.941Z,24.59
2023-09-28T16:39:47.544Z,24.58
2023-09-28T16:42:14.065Z,24.52
2023-09-28T16:44:40.668Z,24.49
2023-09-28T16:47:07.255Z,24.44
2023-09-28T16:49:33.736Z,24.36
2023-09-28T16:52:00.377Z,24.42
2023-09-28T16:54:27.037Z,24.43
2023-09-28T16:56:53.839Z,24.44
2023-09-28T16:59:20.432Z,24.37
2023-09-28T17:01:47.012Z,24.27
2023-09-28T17:04:13.916Z,24.27
2023-09-28T17:06:41.785Z,24.26
2023-09-28T17:09:08.312Z,24.22
2023-09-28T17:11:34.874Z,24.18
2023-09-28T17:14:01.512Z,24.16
2023-09-28T17:16:30.621Z,24.20
2023-09-28T17:18:58.900Z,24.11
2023-09-28T17:21:25.694Z,24.08
2023-09-28T17:23:52.449Z,24.04
2023-09-28T17:26:19.031Z,24.00
2023-09-28T17:28:45.791Z,24.01
2023-09-28T17:31:13.330Z,23.96
2023-09-28T17:33:39.864Z,23.91
2023-09-28T17:36:06.476Z,23.89
2023-09-28T17:38:33.046Z,23.91
2023-09-28T17:41:00.319Z,23.82
2023-09-28T17:43:26.909Z,23.82
2023-09-28T17:45:53.754Z,23.78
2023-09-28T17:48:20.308Z,23.76
2023-09-28T17:50:47.034Z,23.70
2023-09-28T17:53:13.579Z,23.68
2023-09-28T17:55:40.456Z,23.67
2023-09-28T17:58:06.990Z,23.60
2023-09-28T18:00:33.527Z,23.68
2023-09-28T18:03:02.368Z,23.66
2023-09-28T18:05:31.465Z,23.75
2023-09-28T18:07:58.444Z,23.74
2023-09-28T18:10:25.034Z,23.70
2023-09-28T18:12:51.675Z,23.66
2023-09-28T18:15:20.809Z,23.67
2023-09-28T18:17:47.585Z,23.65
2023-09-28T18:20:14.149Z,23.66
2023-09-28T18:22:40.855Z,23.51
2023-09-28T18:25:10.330Z,23.51
2023-09-28T18:27:37.141Z,23.50
2023-09-28T18:30:09.570Z,23.48
2023-09-28T18:32:39.665Z,23.53
2023-09-28T18:35:07.889Z,23.48
2023-09-28T18:37:34.681Z,23.49
2023-09-28T18:40:01.470Z,23.49
2023-09-28T18:42:31.012Z,23.38
2023-09-28T18:44:57.489Z,23.42
2023-09-28T18:47:24.630Z,23.31
2023-09-28T18:49:51.900Z,23.29
2023-09-28T18:52:18.523Z,23.31
2023-09-28T18:54:45.124Z,23.34
2023-09-28T18:57:11.638Z,23.30
2023-09-28T18:59:38.187Z,23.29
2023-09-28T19:02:04.949Z,23.30
2023-09-28T19:04:34.512Z,23.29
2023-09-28T19:07:02.340Z,23.30
2023-09-28T19:09:29.103Z,23.31
2023-09-28T19:11:55.624Z,23.27
2023-09-28T19:14:22.398Z,23.23
2023-09-28T19:16:51.349Z,23.24
2023-09-28T19:19:19.609Z,23.23
2023-09-28T19:21:46.293Z,23.13
2023-09-28T19:24:13.065Z,23.04
2023-09-28T19:26:39.847Z,22.90
2023-09-28T19:29:09.701Z,22.89
2023-09-28T19:31:37.031Z,22.90
2023-09-28T19:34:08.042Z,22.88
2023-09-28T19:36:36.431Z,22.86
2023-09-28T19:39:04.471Z,22.85
2023-09-28T19:41:34.257Z,22.86
2023-09-28T19:44:01.061Z,22.80
2023-09-28T19:46:27.703Z,22.83
2023-09-28T19:48:54.383Z,22.78
2023-09-28T19:51:24.212Z,22.76
2023-09-28T19:53:51.156Z,22.71
2023-09-28T19:56:24.871Z,22.71
2023-09-28T19:58:51.807Z,22.77
2023-09-28T20:01:18.477Z,22.70
2023-09-28T20:03:45.132Z,22.69
2023-09-28T20:06:11.690Z,22.74
2023-09-28T20:08:38.199Z,22.74
2023-09-28T20:11:04.896Z,22.75
2023-09-28T20:13:31.425Z,22.76
2023-09-28T20:15:58.189Z,22.77
2023-09-28T20:18:24.912Z,22.65
2023-09-28T20:20:51.544Z,22.62
2023-09-28T20:23:18.402Z,22.58
2023-09-28T20:25:44.944Z,22.60
2023-09-28T20:28:11.419Z,22.52
2023-09-28T20:30:38.167Z,22.48
2023-09-28T20:33:04.910Z,22.48
2023-09-28T20:35:31.414Z,22.50
2023-09-28T20:37:58.179Z,22.55
2023-09-28T20:40:24.664Z,22.58
2023-09-28T20:42:51.429Z,22.59
2023-09-28T20:45:18.694Z,22.57
2023-09-28T20:47:45.420Z,22.54
2023-09-28T20:50:13.381Z,22.51
2023-09-28T20:52:40.106Z,22.50
2023-09-28T20:55:06.996Z,22.50
2023-09-28T20:57:33.919Z,22.49
2023-09-28T21:00:06.461Z,22.53
2023-09-28T21:02:33.452Z,22.53
2023-09-28T21:05:00.048Z,22.48
2023-09-28T21:07:26.501Z,22.43
2023-09-28T21:09:53.136Z,22.43
2023-09-28T21:12:19.638Z,22.49
2023-09-28T21:14:46.742Z,22.46
2023-09-28T21:17:13.276Z,22.43
2023-09-28T21:19:40.185Z,22.35
2023-09-28T21:22:07.155Z,22.41
2023-09-28T21:24:33.760Z,22.39
2023-09-28T21:27:01.165Z,22.30
2023-09-28T21:29:27.757Z,22.31
2023-09-28T21:31:54.450Z,22.33
2023-09-28T21:34:21.258Z,22.31
2023-09-28T21:36:48.310Z,22.30
2023-09-28T21:39:14.853Z,22.24
2023-09-28T21:41:41.363Z,22.14
2023-09-28T21:44:07.939Z,22.12
2023-09-28T21:46:34.479Z,22.06
2023-09-28T21:49:00.909Z,22.00
2023-09-28T21:51:27.981Z,21.88
2023-09-28T21:53:54.529Z,21.80
2023-09-28T21:56:21.066Z,21.76
2023-09-28T21:58:47.619Z,21.70
2023-09-28T22:11:38.024Z,21.45
2023-09-28T22:14:04.650Z,21.33
2023-09-28T22:16:31.242Z,21.18
2023-09-28T22:18:57.859Z,21.09
2023-09-28T22:21:24.409Z,21.11
2023-09-28T22:23:51.012Z,21.09
2023-09-28T22:26:17.647Z,21.01
2023-09-28T22:28:44.249Z,20.97
2023-09-28T22:31:11.207Z,21.01
2023-09-28T22:33:37.778Z,20.98
2023-09-28T22:36:04.468Z,20.96
2023-09-28T22:38:30.963Z,20.86
2023-09-28T22:40:59.783Z,20.70
2023-09-28T22:43:26.328Z,20.66
2023-09-28T22:45:52.804Z,20.61
2023-09-28T22:48:20.002Z,20.51
2023-09-28T22:50:46.780Z,20.49
2023-09-28T22:53:13.659Z,20.48
2023-09-28T22:55:40.200Z,20.39
2023-09-28T22:58:07.771Z,20.48
2023-09-28T23:00:34.519Z,20.42
2023-09-28T23:03:01.753Z,20.40
2023-09-28T23:05:28.316Z,20.50
2023-09-28T23:07:54.783Z,20.54
2023-09-28T23:10:21.282Z,20.51
2023-09-28T23:12:48.892Z,20.55
2023-09-28T23:15:15.643Z,20.58
2023-09-28T23:17:42.675Z,20.56
2023-09-28T23:20:11.739Z,20.56
2023-09-28T23:22:42.601Z,20.52
2023-09-28T23:25:13.602Z,20.52
2023-09-28T23:27:43.291Z,20.60
2023-09-28T23:30:13.430Z,20.58
2023-09-28T23:32:40.562Z,20.58
2023-09-28T23:35:10.645Z,20.44
2023-09-28T23:37:37.963Z,20.45
2023-09-28T23:40:08.736Z,20.32
2023-09-28T23:42:35.284Z,20.34
2023-09-28T23:45:01.798Z,20.30
2023-09-28T23:47:28.652Z,20.17
2023-09-28T23:49:55.140Z,20.23
2023-09-28T23:52:22.130Z,20.18
2023-09-28T23:54:49.214Z,20.14
2023-09-28T23:57:15.718Z,20.12
2023-09-28T23:59:42.521Z,20.19
